createdAt,value
2022-09-26T00:01:26.657Z,20.73
2022-09-26T00:04:02.931Z,21.27
2022-09-26T00:06:30.089Z,21.08
2022-09-26T00:08:58.113Z,20.50
2022-09-26T00:11:31.380Z,20.10
2022-09-26T00:14:01.808Z,19.50
2022-09-26T00:16:29.081Z,20.48
2022-09-26T00:18:58.960Z,21.42
2022-09-26T00:21:27.308Z,21.20
2022-09-26T00:23:54.768Z,21.10
2022-09-26T00:26:23.350Z,21.52
2022-09-26T00:28:51.100Z,21.58
2022-09-26T00:31:22.221Z,21.10
2022-09-26T00:33:49.295Z,21.58
2022-09-26T00:36:16.664Z,20.30
2022-09-26T00:38:43.976Z,20.77
2022-09-26T00:41:11.460Z,21.65
2022-09-26T00:44:08.548Z,20.50
2022-09-26T00:46:47.297Z,22.40
2022-09-26T00:49:29.260Z,22.23
2022-09-26T00:52:02.263Z,22.85
2022-09-26T00:54:31.256Z,22.55
2022-09-26T00:57:07.275Z,23.70
2022-09-26T00:59:39.085Z,23.48
2022-09-26T01:02:06.951Z,24.25
2022-09-26T01:04:37.360Z,23.63
2022-09-26T01:07:08.548Z,24.42
2022-09-26T01:09:37.285Z,23.58
2022-09-26T01:12:05.895Z,22.98
2022-09-26T01:14:34.507Z,22.85
2022-09-26T01:17:02.633Z,23.15
2022-09-26T01:19:59.782Z,22.05
2022-09-26T01:22:32.661Z,23.88
2022-09-26T01:25:50.343Z,22.83
2022-09-26T01:28:35.880Z,23.15
2022-09-26T01:31:21.952Z,22.55
2022-09-26T01:34:05.296Z,23.15
2022-09-26T01:37:29.324Z,22.40
2022-09-26T01:40:22.158Z,23.80
2022-09-26T01:43:01.980Z,23.60
2022-09-26T01:45:52.172Z,24.13
2022-09-26T01:48:32.675Z,23.98
2022-09-26T01:51:05.156Z,21.60
2022-09-26T01:53:44.565Z,23.42
2022-09-26T01:56:16.493Z,21.52
2022-09-26T01:58:52.594Z,25.27
2022-09-26T02:01:22.260Z,24.48
2022-09-26T02:03:55.402Z,22.90
2022-09-26T02:06:32.329Z,22.83
2022-09-26T02:09:05.236Z,24.40
2022-09-26T02:11:32.726Z,23.38
2022-09-26T02:14:29.266Z,23.25
2022-09-26T02:17:02.797Z,22.50
2022-09-26T02:19:36.877Z,22.42
2022-09-26T02:22:04.123Z,22.55
2022-09-26T02:24:31.276Z,23.08
2022-09-26T02:26:58.422Z,22.77
2022-09-26T02:29:26.377Z,23.15
2022-09-26T02:32:03.148Z,22.77
2022-09-26T02:34:30.608Z,23.52
2022-09-26T02:36:59.425Z,22.13
2022-09-26T02:39:29.862Z,21.45
2022-09-26T02:42:15.910Z,22.13
2022-09-26T02:44:51.582Z,21.85
2022-09-26T02:47:21.719Z,21.45
2022-09-26T02:50:08.650Z,21.10
2022-09-26T02:52:58.701Z,21.30
2022-09-26T02:56:14.398Z,20.88
2022-09-26T02:58:59.991Z,20.50
2022-09-26T03:01:44.128Z,20.52
2022-09-26T03:04:23.614Z,20.60
2022-09-26T03:06:57.713Z,21.45
2022-09-26T03:09:26.158Z,21.67
2022-09-26T03:11:54.815Z,20.35
2022-09-26T03:14:21.762Z,20.73
2022-09-26T03:16:51.319Z,20.48
2022-09-26T03:19:29.761Z,21.08
2022-09-26T03:21:57.433Z,20.85
2022-09-26T03:24:25.692Z,19.50
2022-09-26T03:26:55.377Z,19.85
2022-09-26T03:29:23.120Z,20.27
2022-09-26T03:31:50.459Z,19.35
2022-09-26T03:34:19.225Z,21.15
2022-09-26T03:36:48.037Z,19.48
2022-09-26T03:39:15.172Z,18.75
2022-09-26T03:41:50.913Z,19.92
2022-09-26T03:44:26.353Z,20.35
2022-09-26T03:47:31.940Z,18.92
2022-09-26T03:49:58.706Z,21.15
2022-09-26T03:52:26.854Z,19.13
2022-09-26T03:54:54.378Z,18.83
2022-09-26T03:57:21.618Z,19.55
2022-09-26T03:59:55.241Z,20.40
2022-09-26T04:02:22.952Z,20.60
2022-09-26T04:05:01.105Z,20.67
2022-09-26T04:07:28.268Z,19.33
2022-09-26T04:09:55.156Z,21.40
2022-09-26T04:12:22.130Z,22.80
2022-09-26T04:14:49.089Z,20.70
2022-09-26T04:17:16.841Z,21.27
2022-09-26T04:19:45.978Z,22.42
2022-09-26T04:22:13.585Z,21.50
2022-09-26T04:24:41.684Z,21.85
2022-09-26T04:27:08.679Z,21.45
2022-09-26T04:29:36.542Z,21.15
2022-09-26T04:32:33.041Z,20.55
2022-09-26T04:35:18.505Z,21.92
2022-09-26T04:37:46.211Z,20.10
2022-09-26T04:40:13.942Z,20.75
2022-09-26T04:42:51.231Z,20.15
2022-09-26T04:45:18.445Z,21.48
2022-09-26T04:47:45.510Z,20.83
2022-09-26T04:50:26.269Z,21.48
2022-09-26T04:53:06.847Z,20.80
2022-09-26T04:55:37.932Z,20.17
2022-09-26T04:58:04.746Z,19.85
2022-09-26T05:00:32.347Z,19.60
2022-09-26T05:03:03.289Z,20.65
2022-09-26T05:05:31.322Z,20.45
2022-09-26T05:07:58.083Z,20.75
2022-09-26T05:10:25.275Z,18.90
2022-09-26T05:13:00.878Z,18.75
2022-09-26T05:15:28.206Z,17.63
2022-09-26T05:17:59.564Z,17.70
2022-09-26T05:20:31.894Z,17.08
2022-09-26T05:23:04.412Z,16.63
2022-09-26T05:25:57.447Z,17.23
2022-09-26T05:28:25.528Z,17.50
2022-09-26T05:30:54.515Z,17.98
2022-09-26T05:33:22.427Z,17.90
2022-09-26T05:35:53.386Z,17.00
2022-09-26T05:38:20.437Z,18.45
2022-09-26T05:40:56.613Z,18.38
2022-09-26T05:43:27.841Z,17.70
2022-09-26T05:45:58.659Z,18.05
2022-09-26T05:48:29.853Z,17.75
2022-09-26T05:50:56.922Z,18.63
2022-09-26T05:53:25.815Z,18.13
2022-09-26T05:55:53.857Z,18.13
2022-09-26T05:58:34.345Z,18.25
2022-09-26T06:01:30.398Z,17.20
2022-09-26T06:04:05.271Z,17.52
2022-09-26T06:06:42.134Z,17.35
2022-09-26T06:12:10.909Z,17.23
2022-09-26T06:14:37.897Z,16.45
2022-09-26T06:17:04.870Z,16.63
2022-09-26T06:19:32.363Z,18.13
2022-09-26T06:21:59.429Z,19.88
2022-09-26T06:24:26.265Z,19.65
2022-09-26T06:29:25.169Z,17.85
2022-09-26T06:31:52.392Z,18.80
2022-09-26T06:34:25.992Z,19.52
2022-09-26T06:37:19.139Z,18.52
2022-09-26T06:39:46.078Z,20.25
2022-09-26T06:42:13.220Z,19.17
2022-09-26T06:45:10.782Z,20.60
2022-09-26T06:48:05.480Z,19.55
2022-09-26T06:51:00.616Z,18.90
2022-09-26T06:53:31.413Z,20.02
2022-09-26T06:55:59.727Z,19.92
2022-09-26T06:58:27.864Z,20.05
2022-09-26T07:01:00.797Z,20.30
2022-09-26T07:03:48.346Z,20.13
2022-09-26T07:06:44.538Z,19.58
2022-09-26T07:09:12.938Z,20.25
2022-09-26T07:12:13.623Z,22.38
2022-09-26T07:14:39.301Z,21.20
2022-09-26T07:17:17.216Z,21.95
2022-09-26T07:20:16.894Z,22.35
2022-09-26T07:23:11.249Z,24.00
2022-09-26T07:25:40.468Z,21.92
2022-09-26T07:28:09.312Z,23.05
2022-09-26T07:30:49.790Z,24.15
2022-09-26T07:33:28.406Z,23.25
2022-09-26T07:36:01.875Z,22.67
2022-09-26T07:38:31.568Z,23.20
2022-09-26T07:41:00.833Z,25.15
2022-09-26T07:43:54.772Z,25.05
2022-09-26T07:46:34.637Z,23.52
2022-09-26T07:49:20.327Z,23.48
2022-09-26T07:52:07.824Z,25.48
2022-09-26T07:54:57.575Z,25.13
2022-09-26T07:57:43.378Z,24.10
2022-09-26T08:00:21.321Z,24.83
2022-09-26T08:03:01.706Z,26.43
2022-09-26T08:05:31.775Z,24.58
2022-09-26T08:07:58.781Z,24.27
2022-09-26T08:10:45.042Z,23.50
2022-09-26T08:13:33.171Z,25.30
2022-09-26T08:16:29.653Z,24.85
2022-09-26T08:18:59.695Z,23.58
2022-09-26T08:21:26.558Z,24.35
2022-09-26T08:23:56.985Z,24.95
2022-09-26T08:26:44.317Z,24.08
2022-09-26T08:29:16.852Z,25.63
2022-09-26T08:31:46.286Z,24.38
2022-09-26T08:34:13.514Z,24.90
2022-09-26T08:36:41.820Z,25.35
2022-09-26T08:39:24.508Z,24.15
2022-09-26T08:42:35.203Z,26.17
2022-09-26T08:45:48.110Z,26.35
2022-09-26T08:48:52.055Z,26.27
2022-09-26T08:51:34.883Z,27.13
2022-09-26T08:54:12.368Z,27.42
2022-09-26T08:56:43.754Z,31.35
2022-09-26T08:59:35.935Z,29.80
2022-09-26T09:04:57.642Z,28.52
2022-09-26T09:07:26.282Z,28.90
2022-09-26T09:10:00.187Z,28.50
2022-09-26T09:13:01.643Z,29.63
2022-09-26T09:15:56.229Z,29.08
2022-09-26T09:19:08.755Z,41.97
2022-09-26T09:22:23.723Z,31.17
2022-09-26T09:25:31.033Z,28.50
2022-09-26T09:28:13.735Z,26.05
2022-09-26T09:30:50.393Z,27.77
2022-09-26T09:33:58.820Z,27.00
2022-09-26T09:37:10.791Z,26.45
2022-09-26T09:39:57.060Z,25.85
2022-09-26T09:42:43.455Z,25.27
2022-09-26T09:45:45.934Z,25.13
2022-09-26T09:48:13.755Z,24.73
2022-09-26T09:51:04.041Z,22.98
2022-09-26T09:54:05.118Z,23.60
2022-09-26T09:56:36.654Z,21.98
2022-09-26T09:59:15.395Z,21.85
2022-09-26T10:02:19.474Z,19.95
2022-09-26T10:07:17.430Z,19.00
2022-09-26T10:10:02.233Z,20.02
2022-09-26T10:12:50.286Z,18.30
2022-09-26T10:15:38.972Z,18.20
2022-09-26T10:18:25.992Z,18.55
2022-09-26T10:21:09.033Z,18.52
2022-09-26T10:23:39.965Z,17.25
2022-09-26T10:26:13.966Z,16.55
2022-09-26T10:28:44.973Z,17.02
2022-09-26T10:31:23.447Z,16.37
2022-09-26T10:34:26.237Z,16.33
2022-09-26T10:36:54.215Z,15.10
2022-09-26T10:39:48.633Z,15.30
2022-09-26T10:42:20.971Z,15.32
2022-09-26T10:44:51.199Z,14.63
2022-09-26T10:47:26.323Z,12.60
2022-09-26T10:50:17.141Z,14.85
2022-09-26T10:53:08.948Z,12.40
2022-09-26T10:55:47.547Z,13.88
2022-09-26T10:58:19.231Z,12.10
2022-09-26T11:00:50.854Z,12.18
2022-09-26T11:03:24.901Z,12.10
2022-09-26T11:06:34.199Z,11.10
2022-09-26T11:09:08.634Z,11.82
2022-09-26T11:11:56.259Z,11.52
2022-09-26T11:14:32.662Z,10.80
2022-09-26T11:17:09.067Z,10.85
2022-09-26T11:20:02.328Z,9.77
2022-09-26T11:22:40.442Z,9.55
2022-09-26T11:25:14.277Z,10.10
2022-09-26T11:27:46.774Z,11.65
2022-09-26T11:30:22.289Z,10.05
2022-09-26T11:33:00.457Z,10.20
2022-09-26T11:35:33.421Z,8.82
2022-09-26T11:38:39.549Z,10.60
2022-09-26T11:41:13.623Z,9.68
2022-09-26T11:44:05.135Z,9.18
2022-09-26T11:47:07.273Z,9.15
2022-09-26T11:50:04.379Z,9.02
2022-09-26T11:53:04.138Z,8.15
2022-09-26T11:56:02.355Z,7.70
2022-09-26T11:58:53.521Z,8.95
2022-09-26T12:01:23.505Z,8.10
2022-09-26T12:04:02.118Z,8.32
2022-09-26T12:06:55.232Z,9.10
2022-09-26T12:09:47.374Z,9.88
2022-09-26T12:12:29.176Z,10.48
2022-09-26T12:17:49.910Z,10.88
2022-09-26T12:20:47.196Z,10.77
2022-09-26T12:23:22.140Z,10.35
2022-09-26T12:26:17.406Z,11.93
2022-09-26T12:28:54.176Z,10.57
2022-09-26T12:31:45.454Z,12.38
2022-09-26T12:34:21.534Z,11.35
2022-09-26T12:37:26.077Z,12.18
2022-09-26T12:40:15.407Z,11.88
2022-09-26T12:43:01.650Z,11.80
2022-09-26T12:45:55.213Z,12.60
2022-09-26T12:48:39.601Z,10.90
2022-09-26T12:51:12.705Z,11.57
2022-09-26T12:54:02.234Z,11.98
2022-09-26T12:56:39.673Z,10.60
2022-09-26T12:59:41.141Z,9.77
2022-09-26T13:02:08.167Z,10.30
2022-09-26T13:04:59.763Z,10.35
2022-09-26T13:07:51.823Z,9.75
2022-09-26T13:12:58.847Z,9.77
2022-09-26T13:15:39.998Z,9.30
2022-09-26T13:18:35.466Z,9.63
2022-09-26T13:21:07.872Z,8.70
2022-09-26T13:23:41.112Z,8.20
2022-09-26T13:26:30.995Z,8.35
2022-09-26T13:29:18.175Z,8.73
2022-09-26T13:32:06.485Z,8.20
2022-09-26T13:34:40.254Z,8.68
2022-09-26T13:37:19.587Z,7.82
2022-09-26T13:39:52.250Z,7.55
2022-09-26T13:42:27.515Z,8.88
2022-09-26T13:45:41.119Z,8.85
2022-09-26T13:48:29.287Z,8.55
2022-09-26T13:51:25.630Z,9.00
2022-09-26T13:54:03.403Z,9.63
2022-09-26T13:56:34.961Z,9.40
2022-09-26T13:59:11.147Z,9.48
2022-09-26T14:01:42.225Z,8.35
2022-09-26T14:04:37.561Z,9.20
2022-09-26T14:07:35.380Z,8.27
2022-09-26T14:10:02.236Z,9.55
2022-09-26T14:12:54.235Z,9.85
2022-09-26T14:17:51.619Z,8.57
2022-09-26T14:20:27.431Z,9.75
2022-09-26T14:22:56.929Z,7.97
2022-09-26T14:25:45.648Z,8.48
2022-09-26T14:28:33.519Z,8.63
2022-09-26T14:31:24.362Z,9.52
2022-09-26T14:34:11.801Z,9.27
2022-09-26T14:36:39.225Z,8.77
2022-09-26T14:39:06.375Z,8.45
2022-09-26T14:41:36.043Z,9.02
2022-09-26T14:44:16.294Z,9.48
2022-09-26T14:46:43.927Z,9.43
2022-09-26T14:49:28.142Z,9.65
2022-09-26T14:51:59.847Z,9.93
2022-09-26T14:54:37.256Z,9.80
2022-09-26T14:57:08.238Z,11.23
2022-09-26T14:59:35.204Z,10.57
2022-09-26T15:02:17.448Z,10.70
2022-09-26T15:04:53.445Z,10.02
2022-09-26T15:07:27.280Z,10.52
2022-09-26T15:10:05.375Z,10.60
2022-09-26T15:12:44.156Z,11.65
2022-09-26T15:15:39.275Z,11.50
2022-09-26T15:18:17.261Z,10.48
2022-09-26T15:21:00.448Z,10.45
2022-09-26T15:23:44.189Z,9.90
2022-09-26T15:26:11.715Z,10.80
2022-09-26T15:28:38.746Z,10.32
2022-09-26T15:31:38.250Z,11.35
2022-09-26T15:34:16.599Z,11.27
2022-09-26T15:36:48.433Z,12.20
2022-09-26T15:39:30.741Z,11.77
2022-09-26T15:42:29.514Z,11.57
2022-09-26T15:45:01.514Z,11.85
2022-09-26T15:47:34.279Z,11.75
2022-09-26T15:50:15.098Z,12.10
2022-09-26T15:52:52.110Z,12.40
2022-09-26T15:55:23.891Z,11.63
2022-09-26T16:00:19.881Z,11.20
2022-09-26T16:02:48.776Z,11.57
2022-09-26T16:05:16.641Z,11.02
2022-09-26T16:07:49.052Z,11.38
2022-09-26T16:10:42.655Z,11.55
2022-09-26T16:13:25.587Z,11.63
2022-09-26T16:16:18.908Z,11.57
2022-09-26T16:18:55.423Z,11.18
2022-09-26T16:21:26.395Z,11.73
2022-09-26T16:23:57.934Z,11.13
2022-09-26T16:26:40.392Z,10.23
2022-09-26T16:29:08.450Z,11.57
2022-09-26T16:31:44.944Z,11.38
2022-09-26T16:34:26.172Z,11.07
2022-09-26T16:36:53.994Z,11.43
2022-09-26T16:39:25.108Z,11.25
2022-09-26T16:42:02.877Z,11.95
2022-09-26T16:44:36.460Z,12.02
2022-09-26T16:47:25.106Z,12.18
2022-09-26T16:49:52.140Z,11.15
2022-09-26T16:52:22.230Z,11.52
2022-09-26T16:54:51.083Z,12.18
2022-09-26T16:57:30.345Z,11.15
2022-09-26T17:00:21.045Z,12.13
2022-09-26T17:02:48.185Z,11.37
2022-09-26T17:05:20.776Z,10.77
2022-09-26T17:07:49.218Z,11.02
2022-09-26T17:10:18.363Z,10.13
2022-09-26T17:12:51.540Z,11.23
2022-09-26T17:15:30.137Z,10.90
2022-09-26T17:17:58.351Z,10.95
2022-09-26T17:20:26.874Z,10.07
2022-09-26T17:22:54.893Z,9.55
2022-09-26T17:25:25.175Z,9.57
2022-09-26T17:27:58.185Z,10.02
2022-09-26T17:30:25.505Z,9.15
2022-09-26T17:32:54.419Z,9.95
2022-09-26T17:35:31.966Z,9.60
2022-09-26T17:38:00.118Z,8.43
2022-09-26T17:40:30.621Z,9.43
2022-09-26T17:43:00.816Z,8.32
2022-09-26T17:45:30.057Z,7.97
2022-09-26T17:48:10.505Z,8.48
2022-09-26T17:50:39.196Z,8.68
2022-09-26T17:53:09.431Z,8.65
2022-09-26T17:55:36.475Z,8.80
2022-09-26T17:58:09.416Z,9.85
2022-09-26T18:00:43.606Z,7.93
2022-09-26T18:03:19.820Z,8.40
2022-09-26T18:05:47.274Z,8.32
2022-09-26T18:08:22.918Z,9.07
2022-09-26T18:10:56.887Z,9.65
2022-09-26T18:13:27.953Z,7.93
2022-09-26T18:15:58.922Z,9.75
2022-09-26T18:18:28.928Z,9.90
2022-09-26T18:20:57.587Z,10.07
2022-09-26T18:23:34.909Z,9.35
2022-09-26T18:26:03.088Z,8.05
2022-09-26T18:28:30.168Z,6.20
2022-09-26T18:31:00.427Z,6.60
2022-09-26T18:33:29.337Z,5.80
2022-09-26T18:35:57.657Z,4.85
2022-09-26T18:38:24.616Z,4.35
2022-09-26T18:40:55.406Z,3.90
2022-09-26T18:43:25.116Z,4.10
2022-09-26T18:45:52.645Z,3.65
2022-09-26T18:48:25.409Z,3.00
2022-09-26T18:50:53.547Z,3.40
2022-09-26T18:53:23.424Z,3.33
2022-09-26T18:56:08.980Z,3.15
2022-09-26T18:58:36.193Z,2.40
2022-09-26T19:01:07.025Z,2.80
2022-09-26T19:03:41.360Z,2.80
2022-09-26T19:06:16.250Z,2.85
2022-09-26T19:08:45.896Z,3.17
2022-09-26T19:11:19.628Z,3.00
2022-09-26T19:13:49.082Z,3.65
2022-09-26T19:16:17.899Z,4.00
2022-09-26T19:18:45.625Z,4.30
2022-09-26T19:21:20.871Z,4.43
2022-09-26T19:23:49.424Z,4.32
2022-09-26T19:26:35.093Z,4.38
2022-09-26T19:29:07.809Z,5.40
2022-09-26T19:31:38.344Z,4.82
2022-09-26T19:34:06.150Z,5.22
2022-09-26T19:36:33.143Z,6.57
2022-09-26T19:39:00.051Z,6.65
2022-09-26T19:41:27.448Z,6.82
2022-09-26T19:43:54.476Z,8.60
2022-09-26T19:46:29.849Z,8.73
2022-09-26T19:48:57.526Z,8.95
2022-09-26T19:51:25.013Z,8.23
2022-09-26T19:53:52.277Z,8.43
2022-09-26T19:56:19.221Z,9.07
2022-09-26T19:58:46.437Z,9.82
2022-09-26T20:01:21.248Z,10.93
2022-09-26T20:03:49.931Z,10.27
2022-09-26T20:06:23.357Z,9.90
2022-09-26T20:08:55.385Z,10.48
2022-09-26T20:11:24.993Z,10.02
2022-09-26T20:14:10.647Z,10.93
2022-09-26T20:16:42.270Z,10.27
2022-09-26T20:21:43.407Z,11.05
2022-09-26T20:24:16.460Z,11.02
2022-09-26T20:26:43.856Z,11.95
2022-09-26T20:29:14.072Z,10.82
2022-09-26T20:31:43.864Z,11.02
2022-09-26T20:34:11.664Z,11.60
2022-09-26T20:36:42.206Z,11.90
2022-09-26T20:39:16.494Z,11.23
2022-09-26T20:41:44.302Z,12.27
2022-09-26T20:44:13.440Z,11.40
2022-09-26T20:46:48.465Z,12.48
2022-09-26T20:49:21.753Z,12.50
2022-09-26T20:51:50.055Z,12.65
2022-09-26T20:54:28.956Z,12.52
2022-09-26T20:56:56.790Z,12.18
2022-09-26T20:59:24.798Z,12.40
2022-09-26T21:01:54.131Z,12.50
2022-09-26T21:04:30.611Z,11.98
2022-09-26T21:06:58.447Z,12.75
2022-09-26T21:09:26.526Z,12.73
2022-09-26T21:11:53.452Z,12.85
2022-09-26T21:14:20.448Z,11.48
2022-09-26T21:16:53.796Z,13.57
2022-09-26T21:19:23.874Z,12.50
2022-09-26T21:22:01.239Z,12.70
2022-09-26T21:24:42.151Z,13.68
2022-09-26T21:27:15.249Z,14.48
2022-09-26T21:29:43.592Z,12.95
2022-09-26T21:32:20.906Z,13.32
2022-09-26T21:35:03.394Z,13.73
2022-09-26T21:37:32.066Z,14.85
2022-09-26T21:39:59.257Z,13.85
2022-09-26T21:42:26.464Z,15.23
2022-09-26T21:45:01.063Z,14.40
2022-09-26T21:47:29.385Z,15.75
2022-09-26T21:49:56.280Z,14.50
2022-09-26T21:52:31.222Z,15.02
2022-09-26T21:55:00.056Z,15.43
2022-09-26T21:57:30.653Z,14.80
2022-09-26T21:59:58.436Z,15.55
2022-09-26T22:02:26.056Z,16.65
2022-09-26T22:04:53.255Z,17.02
2022-09-26T22:07:21.207Z,16.60
2022-09-26T22:09:48.370Z,17.27
2022-09-26T22:12:15.310Z,17.80
2022-09-26T22:14:42.582Z,19.90
2022-09-26T22:17:09.821Z,20.45
2022-09-26T22:19:36.902Z,19.95
2022-09-26T22:22:03.876Z,20.48
2022-09-26T22:24:32.048Z,18.23
2022-09-26T22:26:59.357Z,17.60
2022-09-26T22:29:27.492Z,17.10
2022-09-26T22:31:55.630Z,17.25
2022-09-26T22:34:22.803Z,16.40
2022-09-26T22:36:50.610Z,16.73
2022-09-26T22:39:17.786Z,18.75
2022-09-26T22:41:44.964Z,16.00
2022-09-26T22:44:12.101Z,15.32
2022-09-26T22:46:39.687Z,15.57
2022-09-26T22:49:07.133Z,15.45
2022-09-26T22:51:34.822Z,15.23
2022-09-26T22:54:02.111Z,16.08
2022-09-26T22:56:29.099Z,14.80
2022-09-26T22:58:56.331Z,15.23
2022-09-26T23:01:27.443Z,14.70
2022-09-26T23:03:55.244Z,16.03
2022-09-26T23:06:23.603Z,16.33
2022-09-26T23:08:51.035Z,15.80
2022-09-26T23:11:19.466Z,15.63
2022-09-26T23:13:47.040Z,15.65
2022-09-26T23:16:17.924Z,16.23
2022-09-26T23:18:45.300Z,15.90
2022-09-26T23:21:20.266Z,16.23
2022-09-26T23:23:50.247Z,17.13
2022-09-26T23:26:35.167Z,16.65
2022-09-26T23:29:02.236Z,17.40
2022-09-26T23:31:29.718Z,18.00
2022-09-26T23:33:57.499Z,16.98
2022-09-26T23:36:25.390Z,18.90
2022-09-26T23:38:53.648Z,21.00
2022-09-26T23:41:20.616Z,18.95
2022-09-26T23:43:48.232Z,18.95
2022-09-26T23:46:15.478Z,20.20
2022-09-26T23:48:43.602Z,20.80
2022-09-26T23:51:11.431Z,20.23
2022-09-26T23:53:38.422Z,20.63
2022-09-26T23:56:09.376Z,21.60
2022-09-26T23:58:39.295Z,22.63
